sensor_id;sensor_type;location;lat;lon;timestamp;P1;durP1;ratioP1;P2;durP2;ratioP2
57309;SDS011;43153;50.984;18.204;2022-12-16T00:00:04;124.60;;;47.00;;
57309;SDS011;43153;50.984;18.204;2022-12-16T00:02:38;122.50;;;46.50;;
57309;SDS011;43153;50.984;18.204;2022-12-16T00:05:07;119.80;;;48.70;;
57309;SDS011;43153;50.984;18.204;2022-12-16T00:07:35;104.40;;;41.80;;
57309;SDS011;43153;50.984;18.204;2022-12-16T00:10:07;117.30;;;43.90;;
57309;SDS011;43153;50.984;18.204;2022-12-16T00:12:33;111.40;;;44.80;;
57309;SDS011;43153;50.984;18.204;2022-12-16T00:15:00;98.90;;;43.20;;
57309;SDS011;43153;50.984;18.204;2022-12-16T00:17:28;113.00;;;43.00;;
57309;SDS011;43153;50.984;18.204;2022-12-16T00:19:53;115.10;;;42.30;;
57309;SDS011;43153;50.984;18.204;2022-12-16T00:22:19;122.40;;;47.10;;
57309;SDS011;43153;50.984;18.204;2022-12-16T00:24:45;110.30;;;41.10;;
57309;SDS011;43153;50.984;18.204;2022-12-16T00:27:13;116.10;;;43.00;;
57309;SDS011;43153;50.984;18.204;2022-12-16T00:29:43;109.70;;;41.30;;
57309;SDS011;43153;50.984;18.204;2022-12-16T00:32:09;104.40;;;39.90;;
57309;SDS011;43153;50.984;18.204;2022-12-16T00:34:43;103.40;;;41.20;;
57309;SDS011;43153;50.984;18.204;2022-12-16T00:37:10;98.80;;;38.80;;
57309;SDS011;43153;50.984;18.204;2022-12-16T00:39:44;98.10;;;35.90;;
57309;SDS011;43153;50.984;18.204;2022-12-16T00:42:10;97.80;;;38.00;;
57309;SDS011;43153;50.984;18.204;2022-12-16T00:44:36;90.90;;;34.00;;
57309;SDS011;43153;50.984;18.204;2022-12-16T00:47:05;86.30;;;34.00;;
57309;SDS011;43153;50.984;18.204;2022-12-16T00:49:31;91.80;;;35.10;;
57309;SDS011;43153;50.984;18.204;2022-12-16T00:51:58;93.50;;;37.30;;
57309;SDS011;43153;50.984;18.204;2022-12-16T00:54:27;96.80;;;36.40;;
57309;SDS011;43153;50.984;18.204;2022-12-16T00:56:54;94.20;;;36.20;;
57309;SDS011;43153;50.984;18.204;2022-12-16T00:59:22;93.10;;;36.20;;
57309;SDS011;43153;50.984;18.204;2022-12-16T01:01:51;105.20;;;36.10;;
57309;SDS011;43153;50.984;18.204;2022-12-16T01:04:17;88.20;;;31.80;;
57309;SDS011;43153;50.984;18.204;2022-12-16T01:06:45;85.50;;;33.80;;
57309;SDS011;43153;50.984;18.204;2022-12-16T01:09:17;86.50;;;32.60;;
57309;SDS011;43153;50.984;18.204;2022-12-16T01:11:43;91.80;;;35.00;;
57309;SDS011;43153;50.984;18.204;2022-12-16T01:14:10;76.00;;;31.90;;
57309;SDS011;43153;50.984;18.204;2022-12-16T01:16:40;95.50;;;36.60;;
57309;SDS011;43153;50.984;18.204;2022-12-16T01:19:08;84.70;;;34.60;;
57309;SDS011;43153;50.984;18.204;2022-12-16T01:21:35;84.00;;;31.50;;
57309;SDS011;43153;50.984;18.204;2022-12-16T01:24:01;79.30;;;33.10;;
57309;SDS011;43153;50.984;18.204;2022-12-16T01:26:28;78.40;;;31.60;;
57309;SDS011;43153;50.984;18.204;2022-12-16T01:28:55;84.70;;;33.20;;
57309;SDS011;43153;50.984;18.204;2022-12-16T01:31:24;72.20;;;30.50;;
57309;SDS011;43153;50.984;18.204;2022-12-16T01:33:51;68.60;;;27.40;;
57309;SDS011;43153;50.984;18.204;2022-12-16T01:36:19;74.30;;;28.00;;
57309;SDS011;43153;50.984;18.204;2022-12-16T01:39:03;65.50;;;27.90;;
57309;SDS011;43153;50.984;18.204;2022-12-16T01:41:29;66.10;;;27.10;;
57309;SDS011;43153;50.984;18.204;2022-12-16T01:44:10;68.70;;;26.70;;
57309;SDS011;43153;50.984;18.204;2022-12-16T01:46:49;75.10;;;29.70;;
57309;SDS011;43153;50.984;18.204;2022-12-16T01:49:26;68.70;;;27.00;;
57309;SDS011;43153;50.984;18.204;2022-12-16T01:51:58;73.90;;;28.70;;
57309;SDS011;43153;50.984;18.204;2022-12-16T01:54:30;78.70;;;27.80;;
57309;SDS011;43153;50.984;18.204;2022-12-16T01:57:02;73.00;;;26.90;;
57309;SDS011;43153;50.984;18.204;2022-12-16T01:59:34;65.40;;;25.60;;
57309;SDS011;43153;50.984;18.204;2022-12-16T02:02:02;61.80;;;23.40;;
57309;SDS011;43153;50.984;18.204;2022-12-16T02:04:28;63.10;;;25.60;;
57309;SDS011;43153;50.984;18.204;2022-12-16T02:06:56;59.70;;;24.70;;
57309;SDS011;43153;50.984;18.204;2022-12-16T02:09:22;64.00;;;26.00;;
57309;SDS011;43153;50.984;18.204;2022-12-16T02:15:16;65.00;;;22.50;;
57309;SDS011;43153;50.984;18.204;2022-12-16T02:26:22;60.30;;;23.00;;
57309;SDS011;43153;50.984;18.204;2022-12-16T02:34:31;61.30;;;24.80;;
57309;SDS011;43153;50.984;18.204;2022-12-16T02:37:23;53.20;;;23.20;;
57309;SDS011;43153;50.984;18.204;2022-12-16T02:40:00;65.60;;;24.50;;
57309;SDS011;43153;50.984;18.204;2022-12-16T02:42:37;61.50;;;24.30;;
57309;SDS011;43153;50.984;18.204;2022-12-16T02:45:19;61.20;;;24.00;;
57309;SDS011;43153;50.984;18.204;2022-12-16T02:47:50;58.50;;;24.30;;
57309;SDS011;43153;50.984;18.204;2022-12-16T02:50:27;58.70;;;23.70;;
57309;SDS011;43153;50.984;18.204;2022-12-16T02:53:01;61.50;;;25.40;;
57309;SDS011;43153;50.984;18.204;2022-12-16T03:04:15;45.60;;;20.60;;
57309;SDS011;43153;50.984;18.204;2022-12-16T03:06:55;67.00;;;24.70;;
57309;SDS011;43153;50.984;18.204;2022-12-16T03:09:30;57.10;;;23.20;;
57309;SDS011;43153;50.984;18.204;2022-12-16T03:12:00;62.10;;;23.40;;
57309;SDS011;43153;50.984;18.204;2022-12-16T03:14:30;62.60;;;22.70;;
57309;SDS011;43153;50.984;18.204;2022-12-16T03:16:58;58.30;;;23.30;;
57309;SDS011;43153;50.984;18.204;2022-12-16T03:19:24;64.60;;;22.90;;
57309;SDS011;43153;50.984;18.204;2022-12-16T03:21:51;58.30;;;22.50;;
57309;SDS011;43153;50.984;18.204;2022-12-16T03:24:22;52.70;;;21.90;;
57309;SDS011;43153;50.984;18.204;2022-12-16T03:29:45;56.90;;;21.00;;
57309;SDS011;43153;50.984;18.204;2022-12-16T03:32:16;62.70;;;21.40;;
57309;SDS011;43153;50.984;18.204;2022-12-16T03:34:50;61.60;;;22.50;;
57309;SDS011;43153;50.984;18.204;2022-12-16T03:37:28;58.00;;;23.10;;
57309;SDS011;43153;50.984;18.204;2022-12-16T03:39:59;52.30;;;21.30;;
57309;SDS011;43153;50.984;18.204;2022-12-16T03:42:28;56.80;;;21.50;;
57309;SDS011;43153;50.984;18.204;2022-12-16T03:44:58;57.30;;;20.20;;
57309;SDS011;43153;50.984;18.204;2022-12-16T03:47:26;51.30;;;19.80;;
57309;SDS011;43153;50.984;18.204;2022-12-16T03:49:54;48.90;;;20.10;;
57309;SDS011;43153;50.984;18.204;2022-12-16T03:52:22;53.70;;;22.10;;
57309;SDS011;43153;50.984;18.204;2022-12-16T03:54:50;52.70;;;21.90;;
57309;SDS011;43153;50.984;18.204;2022-12-16T03:57:17;52.50;;;20.70;;
57309;SDS011;43153;50.984;18.204;2022-12-16T03:59:44;51.50;;;18.60;;
57309;SDS011;43153;50.984;18.204;2022-12-16T04:02:10;49.50;;;19.10;;
57309;SDS011;43153;50.984;18.204;2022-12-16T04:04:37;47.10;;;21.10;;
57309;SDS011;43153;50.984;18.204;2022-12-16T04:07:02;53.60;;;20.40;;
57309;SDS011;43153;50.984;18.204;2022-12-16T04:09:49;49.40;;;20.60;;
57309;SDS011;43153;50.984;18.204;2022-12-16T04:12:18;49.20;;;21.20;;
57309;SDS011;43153;50.984;18.204;2022-12-16T04:15:08;49.70;;;20.20;;
57309;SDS011;43153;50.984;18.204;2022-12-16T04:17:53;55.20;;;19.90;;
57309;SDS011;43153;50.984;18.204;2022-12-16T04:20:42;47.20;;;19.80;;
57309;SDS011;43153;50.984;18.204;2022-12-16T04:23:31;44.40;;;17.30;;
57309;SDS011;43153;50.984;18.204;2022-12-16T04:26:16;48.00;;;19.60;;
57309;SDS011;43153;50.984;18.204;2022-12-16T04:28:42;44.90;;;17.50;;
57309;SDS011;43153;50.984;18.204;2022-12-16T04:31:08;52.50;;;21.80;;
57309;SDS011;43153;50.984;18.204;2022-12-16T04:33:36;48.20;;;19.80;;
57309;SDS011;43153;50.984;18.204;2022-12-16T04:36:23;47.60;;;18.40;;
57309;SDS011;43153;50.984;18.204;2022-12-16T04:39:08;50.80;;;20.10;;
57309;SDS011;43153;50.984;18.204;2022-12-16T04:41:54;46.40;;;19.50;;
57309;SDS011;43153;50.984;18.204;2022-12-16T04:44:40;47.90;;;18.80;;
57309;SDS011;43153;50.984;18.204;2022-12-16T04:47:24;47.80;;;18.60;;
57309;SDS011;43153;50.984;18.204;2022-12-16T04:50:10;39.90;;;17.50;;
57309;SDS011;43153;50.984;18.204;2022-12-16T04:52:57;48.40;;;19.40;;
57309;SDS011;43153;50.984;18.204;2022-12-16T04:55:43;50.60;;;19.90;;
57309;SDS011;43153;50.984;18.204;2022-12-16T04:58:27;48.00;;;18.40;;
57309;SDS011;43153;50.984;18.204;2022-12-16T05:01:13;48.10;;;18.40;;
57309;SDS011;43153;50.984;18.204;2022-12-16T05:03:58;42.90;;;19.20;;
57309;SDS011;43153;50.984;18.204;2022-12-16T05:06:45;56.40;;;19.40;;
57309;SDS011;43153;50.984;18.204;2022-12-16T05:09:32;52.30;;;22.80;;
57309;SDS011;43153;50.984;18.204;2022-12-16T05:12:21;53.60;;;21.80;;
57309;SDS011;43153;50.984;18.204;2022-12-16T05:15:10;51.00;;;20.10;;
57309;SDS011;43153;50.984;18.204;2022-12-16T05:17:56;58.00;;;22.70;;
57309;SDS011;43153;50.984;18.204;2022-12-16T05:20:42;48.00;;;18.80;;
57309;SDS011;43153;50.984;18.204;2022-12-16T05:23:27;51.20;;;22.80;;
57309;SDS011;43153;50.984;18.204;2022-12-16T05:26:12;42.40;;;17.70;;
57309;SDS011;43153;50.984;18.204;2022-12-16T05:28:56;53.50;;;20.50;;
57309;SDS011;43153;50.984;18.204;2022-12-16T05:31:42;48.10;;;20.40;;
57309;SDS011;43153;50.984;18.204;2022-12-16T05:34:26;48.70;;;20.10;;
57309;SDS011;43153;50.984;18.204;2022-12-16T05:37:11;49.10;;;21.60;;
57309;SDS011;43153;50.984;18.204;2022-12-16T05:39:55;50.60;;;20.90;;
57309;SDS011;43153;50.984;18.204;2022-12-16T05:42:46;45.50;;;21.50;;
57309;SDS011;43153;50.984;18.204;2022-12-16T05:45:30;53.90;;;20.70;;
57309;SDS011;43153;50.984;18.204;2022-12-16T05:48:16;46.20;;;18.20;;
57309;SDS011;43153;50.984;18.204;2022-12-16T05:51:02;49.00;;;21.90;;
57309;SDS011;43153;50.984;18.204;2022-12-16T05:53:46;46.70;;;19.20;;
57309;SDS011;43153;50.984;18.204;2022-12-16T05:56:34;47.60;;;19.20;;
57309;SDS011;43153;50.984;18.204;2022-12-16T05:59:21;48.50;;;18.60;;
57309;SDS011;43153;50.984;18.204;2022-12-16T06:02:06;46.10;;;19.50;;
57309;SDS011;43153;50.984;18.204;2022-12-16T06:04:52;48.30;;;20.50;;
57309;SDS011;43153;50.984;18.204;2022-12-16T06:07:39;46.30;;;18.80;;
57309;SDS011;43153;50.984;18.204;2022-12-16T06:10:25;50.60;;;20.20;;
57309;SDS011;43153;50.984;18.204;2022-12-16T06:13:14;50.70;;;19.90;;
57309;SDS011;43153;50.984;18.204;2022-12-16T06:15:58;53.60;;;21.40;;
57309;SDS011;43153;50.984;18.204;2022-12-16T06:18:44;52.00;;;22.20;;
57309;SDS011;43153;50.984;18.204;2022-12-16T06:21:33;52.80;;;21.10;;
57309;SDS011;43153;50.984;18.204;2022-12-16T06:24:18;56.90;;;23.60;;
57309;SDS011;43153;50.984;18.204;2022-12-16T06:27:02;49.90;;;20.50;;
57309;SDS011;43153;50.984;18.204;2022-12-16T06:29:47;53.60;;;21.90;;
57309;SDS011;43153;50.984;18.204;2022-12-16T06:32:34;56.60;;;24.00;;
57309;SDS011;43153;50.984;18.204;2022-12-16T06:35:27;53.70;;;22.70;;
57309;SDS011;43153;50.984;18.204;2022-12-16T06:38:12;50.60;;;20.90;;
57309;SDS011;43153;50.984;18.204;2022-12-16T06:40:59;57.70;;;22.00;;
57309;SDS011;43153;50.984;18.204;2022-12-16T06:43:45;54.40;;;21.70;;
57309;SDS011;43153;50.984;18.204;2022-12-16T06:46:33;51.30;;;22.20;;
57309;SDS011;43153;50.984;18.204;2022-12-16T06:49:19;64.70;;;27.30;;
57309;SDS011;43153;50.984;18.204;2022-12-16T06:52:08;62.20;;;26.40;;
57309;SDS011;43153;50.984;18.204;2022-12-16T06:54:55;61.80;;;25.70;;
57309;SDS011;43153;50.984;18.204;2022-12-16T06:57:43;62.30;;;25.30;;
57309;SDS011;43153;50.984;18.204;2022-12-16T07:00:27;65.80;;;29.00;;
57309;SDS011;43153;50.984;18.204;2022-12-16T07:03:12;62.80;;;25.60;;
57309;SDS011;43153;50.984;18.204;2022-12-16T07:05:56;70.60;;;26.70;;
57309;SDS011;43153;50.984;18.204;2022-12-16T07:08:43;68.00;;;26.50;;
57309;SDS011;43153;50.984;18.204;2022-12-16T07:11:32;65.70;;;25.50;;
57309;SDS011;43153;50.984;18.204;2022-12-16T07:14:22;56.90;;;23.50;;
57309;SDS011;43153;50.984;18.204;2022-12-16T07:17:16;65.00;;;26.50;;
57309;SDS011;43153;50.984;18.204;2022-12-16T07:20:01;66.60;;;25.20;;
57309;SDS011;43153;50.984;18.204;2022-12-16T07:22:48;55.60;;;22.90;;
57309;SDS011;43153;50.984;18.204;2022-12-16T07:25:34;47.70;;;21.10;;
57309;SDS011;43153;50.984;18.204;2022-12-16T07:28:26;57.20;;;24.40;;
57309;SDS011;43153;50.984;18.204;2022-12-16T07:31:11;65.70;;;27.60;;
57309;SDS011;43153;50.984;18.204;2022-12-16T07:34:00;67.80;;;27.30;;
57309;SDS011;43153;50.984;18.204;2022-12-16T07:36:45;69.30;;;30.20;;
57309;SDS011;43153;50.984;18.204;2022-12-16T07:39:29;62.40;;;25.30;;
57309;SDS011;43153;50.984;18.204;2022-12-16T07:42:14;81.30;;;34.80;;
57309;SDS011;43153;50.984;18.204;2022-12-16T07:44:58;69.10;;;29.20;;
57309;SDS011;43153;50.984;18.204;2022-12-16T07:47:46;60.70;;;30.00;;
57309;SDS011;43153;50.984;18.204;2022-12-16T07:50:32;66.90;;;28.90;;
57309;SDS011;43153;50.984;18.204;2022-12-16T07:53:19;63.60;;;27.90;;
57309;SDS011;43153;50.984;18.204;2022-12-16T07:56:04;70.20;;;27.60;;
57309;SDS011;43153;50.984;18.204;2022-12-16T07:58:50;68.60;;;29.20;;
57309;SDS011;43153;50.984;18.204;2022-12-16T08:01:36;74.90;;;29.20;;
57309;SDS011;43153;50.984;18.204;2022-12-16T08:04:21;75.70;;;29.80;;
57309;SDS011;43153;50.984;18.204;2022-12-16T08:07:14;71.70;;;28.60;;
57309;SDS011;43153;50.984;18.204;2022-12-16T08:10:00;79.90;;;30.50;;
57309;SDS011;43153;50.984;18.204;2022-12-16T08:12:46;66.40;;;27.10;;
57309;SDS011;43153;50.984;18.204;2022-12-16T08:15:33;79.30;;;32.20;;
57309;SDS011;43153;50.984;18.204;2022-12-16T08:18:17;85.40;;;35.20;;
57309;SDS011;43153;50.984;18.204;2022-12-16T08:21:14;69.90;;;33.10;;
57309;SDS011;43153;50.984;18.204;2022-12-16T08:23:58;77.00;;;31.80;;
57309;SDS011;43153;50.984;18.204;2022-12-16T08:26:46;79.50;;;37.60;;
57309;SDS011;43153;50.984;18.204;2022-12-16T08:29:30;76.30;;;34.50;;
57309;SDS011;43153;50.984;18.204;2022-12-16T08:32:18;80.50;;;33.90;;
57309;SDS011;43153;50.984;18.204;2022-12-16T08:35:03;76.80;;;31.20;;
57309;SDS011;43153;50.984;18.204;2022-12-16T08:37:48;66.30;;;29.00;;
57309;SDS011;43153;50.984;18.204;2022-12-16T08:40:39;81.10;;;30.40;;
57309;SDS011;43153;50.984;18.204;2022-12-16T08:43:40;78.70;;;31.20;;
57309;SDS011;43153;50.984;18.204;2022-12-16T08:46:26;67.80;;;27.50;;
57309;SDS011;43153;50.984;18.204;2022-12-16T08:49:11;72.50;;;29.20;;
57309;SDS011;43153;50.984;18.204;2022-12-16T08:51:59;75.60;;;31.00;;
57309;SDS011;43153;50.984;18.204;2022-12-16T08:54:45;71.50;;;32.40;;
57309;SDS011;43153;50.984;18.204;2022-12-16T08:57:33;74.60;;;28.30;;
57309;SDS011;43153;50.984;18.204;2022-12-16T09:00:18;72.50;;;29.30;;
57309;SDS011;43153;50.984;18.204;2022-12-16T09:03:07;79.40;;;33.50;;
57309;SDS011;43153;50.984;18.204;2022-12-16T09:06:19;74.50;;;29.30;;
57309;SDS011;43153;50.984;18.204;2022-12-16T09:09:09;75.40;;;31.60;;
57309;SDS011;43153;50.984;18.204;2022-12-16T09:11:53;76.00;;;33.30;;
57309;SDS011;43153;50.984;18.204;2022-12-16T09:14:39;77.00;;;33.20;;
57309;SDS011;43153;50.984;18.204;2022-12-16T09:17:24;72.70;;;30.80;;
57309;SDS011;43153;50.984;18.204;2022-12-16T09:20:14;76.10;;;31.30;;
57309;SDS011;43153;50.984;18.204;2022-12-16T09:23:02;69.10;;;31.70;;
57309;SDS011;43153;50.984;18.204;2022-12-16T09:25:49;66.40;;;26.30;;
57309;SDS011;43153;50.984;18.204;2022-12-16T09:28:34;69.90;;;29.90;;
57309;SDS011;43153;50.984;18.204;2022-12-16T09:31:19;80.10;;;33.10;;
57309;SDS011;43153;50.984;18.204;2022-12-16T09:34:06;75.80;;;30.70;;
57309;SDS011;43153;50.984;18.204;2022-12-16T09:36:51;83.20;;;32.60;;
57309;SDS011;43153;50.984;18.204;2022-12-16T09:39:36;73.30;;;32.00;;
57309;SDS011;43153;50.984;18.204;2022-12-16T09:48:29;74.50;;;30.40;;
57309;SDS011;43153;50.984;18.204;2022-12-16T09:51:22;83.00;;;32.50;;
57309;SDS011;43153;50.984;18.204;2022-12-16T09:54:11;87.00;;;34.30;;
57309;SDS011;43153;50.984;18.204;2022-12-16T09:57:02;73.40;;;30.00;;
57309;SDS011;43153;50.984;18.204;2022-12-16T09:59:51;74.70;;;32.90;;
57309;SDS011;43153;50.984;18.204;2022-12-16T10:02:40;83.90;;;32.90;;
57309;SDS011;43153;50.984;18.204;2022-12-16T10:05:55;77.10;;;33.20;;
57309;SDS011;43153;50.984;18.204;2022-12-16T10:08:46;67.90;;;30.20;;
57309;SDS011;43153;50.984;18.204;2022-12-16T10:11:46;70.50;;;32.90;;
57309;SDS011;43153;50.984;18.204;2022-12-16T10:18:27;79.00;;;28.70;;
57309;SDS011;43153;50.984;18.204;2022-12-16T10:21:22;83.10;;;33.10;;
57309;SDS011;43153;50.984;18.204;2022-12-16T10:24:28;75.00;;;31.30;;
57309;SDS011;43153;50.984;18.204;2022-12-16T10:30:32;77.00;;;35.60;;
57309;SDS011;43153;50.984;18.204;2022-12-16T10:33:20;75.30;;;32.00;;
57309;SDS011;43153;50.984;18.204;2022-12-16T10:36:21;73.60;;;32.40;;
57309;SDS011;43153;50.984;18.204;2022-12-16T10:39:16;76.50;;;30.50;;
57309;SDS011;43153;50.984;18.204;2022-12-16T10:42:20;76.60;;;31.60;;
57309;SDS011;43153;50.984;18.204;2022-12-16T10:45:12;70.90;;;32.60;;
57309;SDS011;43153;50.984;18.204;2022-12-16T10:48:04;77.10;;;31.40;;
57309;SDS011;43153;50.984;18.204;2022-12-16T10:50:53;74.90;;;31.30;;
57309;SDS011;43153;50.984;18.204;2022-12-16T10:53:41;71.90;;;29.00;;
57309;SDS011;43153;50.984;18.204;2022-12-16T10:59:41;81.30;;;33.80;;
57309;SDS011;43153;50.984;18.204;2022-12-16T11:02:31;80.30;;;32.90;;
57309;SDS011;43153;50.984;18.204;2022-12-16T11:05:30;72.70;;;29.80;;
57309;SDS011;43153;50.984;18.204;2022-12-16T11:08:23;76.10;;;34.00;;
57309;SDS011;43153;50.984;18.204;2022-12-16T11:11:34;84.90;;;37.90;;
57309;SDS011;43153;50.984;18.204;2022-12-16T11:14:21;89.50;;;33.90;;
57309;SDS011;43153;50.984;18.204;2022-12-16T11:17:21;80.10;;;34.50;;
57309;SDS011;43153;50.984;18.204;2022-12-16T11:20:17;74.40;;;33.40;;
57309;SDS011;43153;50.984;18.204;2022-12-16T11:31:47;83.70;;;34.60;;
57309;SDS011;43153;50.984;18.204;2022-12-16T11:34:34;82.60;;;35.40;;
57309;SDS011;43153;50.984;18.204;2022-12-16T11:37:21;77.50;;;31.60;;
57309;SDS011;43153;50.984;18.204;2022-12-16T11:40:12;83.30;;;31.50;;
57309;SDS011;43153;50.984;18.204;2022-12-16T11:42:59;72.20;;;32.10;;
57309;SDS011;43153;50.984;18.204;2022-12-16T11:45:46;80.00;;;33.00;;
57309;SDS011;43153;50.984;18.204;2022-12-16T11:51:27;81.90;;;33.40;;
57309;SDS011;43153;50.984;18.204;2022-12-16T11:54:24;75.90;;;35.50;;
57309;SDS011;43153;50.984;18.204;2022-12-16T11:57:16;79.30;;;33.50;;
57309;SDS011;43153;50.984;18.204;2022-12-16T12:00:03;71.80;;;28.80;;
57309;SDS011;43153;50.984;18.204;2022-12-16T12:02:51;74.80;;;32.90;;
57309;SDS011;43153;50.984;18.204;2022-12-16T12:05:41;77.20;;;32.80;;
57309;SDS011;43153;50.984;18.204;2022-12-16T12:08:52;80.10;;;32.70;;
57309;SDS011;43153;50.984;18.204;2022-12-16T12:12:07;73.80;;;29.20;;
57309;SDS011;43153;50.984;18.204;2022-12-16T12:15:12;74.10;;;31.50;;
57309;SDS011;43153;50.984;18.204;2022-12-16T12:24:18;76.10;;;30.40;;
57309;SDS011;43153;50.984;18.204;2022-12-16T12:27:11;77.90;;;32.20;;
57309;SDS011;43153;50.984;18.204;2022-12-16T12:30:09;76.20;;;31.30;;
57309;SDS011;43153;50.984;18.204;2022-12-16T12:51:16;66.40;;;27.90;;
57309;SDS011;43153;50.984;18.204;2022-12-16T12:57:35;69.20;;;28.60;;
57309;SDS011;43153;50.984;18.204;2022-12-16T13:00:25;68.20;;;30.60;;
57309;SDS011;43153;50.984;18.204;2022-12-16T13:06:19;66.70;;;28.80;;
57309;SDS011;43153;50.984;18.204;2022-12-16T13:20:48;74.30;;;31.30;;
57309;SDS011;43153;50.984;18.204;2022-12-16T13:23:42;76.30;;;30.10;;
57309;SDS011;43153;50.984;18.204;2022-12-16T13:26:31;80.40;;;30.90;;
57309;SDS011;43153;50.984;18.204;2022-12-16T13:29:27;70.30;;;29.40;;
57309;SDS011;43153;50.984;18.204;2022-12-16T13:35:02;75.40;;;31.10;;
57309;SDS011;43153;50.984;18.204;2022-12-16T13:38:21;76.00;;;29.90;;
57309;SDS011;43153;50.984;18.204;2022-12-16T13:50:40;73.00;;;29.70;;
57309;SDS011;43153;50.984;18.204;2022-12-16T13:56:43;84.70;;;29.60;;
57309;SDS011;43153;50.984;18.204;2022-12-16T13:59:31;77.50;;;32.40;;
57309;SDS011;43153;50.984;18.204;2022-12-16T14:02:31;69.70;;;26.30;;
57309;SDS011;43153;50.984;18.204;2022-12-16T14:05:21;77.10;;;32.00;;
57309;SDS011;43153;50.984;18.204;2022-12-16T14:08:13;72.00;;;29.10;;
57309;SDS011;43153;50.984;18.204;2022-12-16T14:11:03;69.30;;;27.20;;
57309;SDS011;43153;50.984;18.204;2022-12-16T14:14:07;77.10;;;28.70;;
57309;SDS011;43153;50.984;18.204;2022-12-16T14:17:01;81.00;;;30.80;;
57309;SDS011;43153;50.984;18.204;2022-12-16T14:26:14;75.10;;;30.60;;
57309;SDS011;43153;50.984;18.204;2022-12-16T14:28:59;74.90;;;29.90;;
57309;SDS011;43153;50.984;18.204;2022-12-16T14:31:45;69.90;;;28.40;;
57309;SDS011;43153;50.984;18.204;2022-12-16T14:34:34;77.80;;;31.20;;
57309;SDS011;43153;50.984;18.204;2022-12-16T14:37:22;74.30;;;33.20;;
57309;SDS011;43153;50.984;18.204;2022-12-16T14:45:57;81.00;;;30.60;;
57309;SDS011;43153;50.984;18.204;2022-12-16T14:48:48;73.90;;;28.60;;
57309;SDS011;43153;50.984;18.204;2022-12-16T14:51:47;79.70;;;27.60;;
57309;SDS011;43153;50.984;18.204;2022-12-16T14:57:25;84.40;;;30.40;;
57309;SDS011;43153;50.984;18.204;2022-12-16T15:03:14;82.10;;;29.00;;
57309;SDS011;43153;50.984;18.204;2022-12-16T15:06:03;74.40;;;29.70;;
57309;SDS011;43153;50.984;18.204;2022-12-16T15:08:55;71.60;;;29.10;;
57309;SDS011;43153;50.984;18.204;2022-12-16T15:11:44;87.40;;;32.50;;
57309;SDS011;43153;50.984;18.204;2022-12-16T15:14:33;81.20;;;30.60;;
57309;SDS011;43153;50.984;18.204;2022-12-16T15:17:20;75.00;;;29.90;;
57309;SDS011;43153;50.984;18.204;2022-12-16T15:20:19;76.50;;;29.10;;
57309;SDS011;43153;50.984;18.204;2022-12-16T15:26:09;75.80;;;27.40;;
57309;SDS011;43153;50.984;18.204;2022-12-16T15:29:02;80.60;;;29.00;;
57309;SDS011;43153;50.984;18.204;2022-12-16T15:31:47;74.40;;;27.60;;
57309;SDS011;43153;50.984;18.204;2022-12-16T15:37:29;75.60;;;25.10;;
57309;SDS011;43153;50.984;18.204;2022-12-16T15:40:26;86.40;;;30.50;;
57309;SDS011;43153;50.984;18.204;2022-12-16T15:43:18;88.00;;;33.20;;
57309;SDS011;43153;50.984;18.204;2022-12-16T15:49:13;88.50;;;31.60;;
57309;SDS011;43153;50.984;18.204;2022-12-16T15:51:59;79.30;;;29.10;;
57309;SDS011;43153;50.984;18.204;2022-12-16T15:54:50;75.50;;;26.90;;
57309;SDS011;43153;50.984;18.204;2022-12-16T16:03:26;73.90;;;28.20;;
57309;SDS011;43153;50.984;18.204;2022-12-16T16:06:24;83.60;;;31.40;;
57309;SDS011;43153;50.984;18.204;2022-12-16T16:09:20;93.20;;;32.30;;
57309;SDS011;43153;50.984;18.204;2022-12-16T16:12:08;81.10;;;30.50;;
57309;SDS011;43153;50.984;18.204;2022-12-16T16:14:53;82.90;;;29.20;;
57309;SDS011;43153;50.984;18.204;2022-12-16T16:17:39;72.80;;;27.80;;
57309;SDS011;43153;50.984;18.204;2022-12-16T16:20:24;81.50;;;27.90;;
57309;SDS011;43153;50.984;18.204;2022-12-16T16:23:09;75.10;;;29.20;;
57309;SDS011;43153;50.984;18.204;2022-12-16T16:25:55;80.30;;;30.50;;
57309;SDS011;43153;50.984;18.204;2022-12-16T16:28:40;76.00;;;28.80;;
57309;SDS011;43153;50.984;18.204;2022-12-16T16:31:26;82.30;;;28.60;;
57309;SDS011;43153;50.984;18.204;2022-12-16T16:34:11;74.00;;;27.20;;
57309;SDS011;43153;50.984;18.204;2022-12-16T16:36:56;82.60;;;30.90;;
57309;SDS011;43153;50.984;18.204;2022-12-16T16:39:41;82.90;;;27.90;;
57309;SDS011;43153;50.984;18.204;2022-12-16T16:42:27;84.20;;;29.30;;
57309;SDS011;43153;50.984;18.204;2022-12-16T16:45:14;89.50;;;33.50;;
57309;SDS011;43153;50.984;18.204;2022-12-16T16:48:32;84.60;;;32.80;;
57309;SDS011;43153;50.984;18.204;2022-12-16T16:51:11;85.70;;;28.80;;
57309;SDS011;43153;50.984;18.204;2022-12-16T16:53:56;87.50;;;30.40;;
57309;SDS011;43153;50.984;18.204;2022-12-16T16:56:41;81.30;;;30.40;;
57309;SDS011;43153;50.984;18.204;2022-12-16T16:59:25;86.40;;;30.70;;
57309;SDS011;43153;50.984;18.204;2022-12-16T17:02:14;89.30;;;32.10;;
57309;SDS011;43153;50.984;18.204;2022-12-16T17:05:04;83.00;;;32.00;;
57309;SDS011;43153;50.984;18.204;2022-12-16T17:07:56;81.60;;;30.20;;
57309;SDS011;43153;50.984;18.204;2022-12-16T17:10:41;93.60;;;31.60;;
57309;SDS011;43153;50.984;18.204;2022-12-16T17:13:26;85.90;;;30.60;;
57309;SDS011;43153;50.984;18.204;2022-12-16T17:16:11;81.10;;;30.00;;
57309;SDS011;43153;50.984;18.204;2022-12-16T17:18:57;72.40;;;26.60;;
57309;SDS011;43153;50.984;18.204;2022-12-16T17:21:43;85.80;;;31.30;;
57309;SDS011;43153;50.984;18.204;2022-12-16T17:24:28;84.40;;;29.60;;
57309;SDS011;43153;50.984;18.204;2022-12-16T17:27:19;85.00;;;30.20;;
57309;SDS011;43153;50.984;18.204;2022-12-16T17:30:26;73.60;;;31.20;;
57309;SDS011;43153;50.984;18.204;2022-12-16T17:33:10;83.20;;;31.90;;
57309;SDS011;43153;50.984;18.204;2022-12-16T17:35:55;89.70;;;34.30;;
57309;SDS011;43153;50.984;18.204;2022-12-16T17:38:43;81.40;;;34.10;;
57309;SDS011;43153;50.984;18.204;2022-12-16T17:41:31;93.30;;;32.60;;
57309;SDS011;43153;50.984;18.204;2022-12-16T17:44:16;84.50;;;34.30;;
57309;SDS011;43153;50.984;18.204;2022-12-16T17:47:01;86.90;;;31.10;;
57309;SDS011;43153;50.984;18.204;2022-12-16T17:49:46;95.10;;;37.00;;
57309;SDS011;43153;50.984;18.204;2022-12-16T17:52:31;93.90;;;37.40;;
57309;SDS011;43153;50.984;18.204;2022-12-16T17:55:17;97.80;;;38.70;;
57309;SDS011;43153;50.984;18.204;2022-12-16T17:58:03;104.00;;;35.50;;
57309;SDS011;43153;50.984;18.204;2022-12-16T18:00:47;91.80;;;31.30;;
57309;SDS011;43153;50.984;18.204;2022-12-16T18:03:32;95.10;;;33.80;;
57309;SDS011;43153;50.984;18.204;2022-12-16T18:06:19;87.40;;;33.20;;
57309;SDS011;43153;50.984;18.204;2022-12-16T18:09:07;96.60;;;31.30;;
57309;SDS011;43153;50.984;18.204;2022-12-16T18:11:52;91.70;;;30.40;;